Terminal Aerodrome Forecast
Issued by NWS Upton, NY

Home | Current Version | Previous Version | Text Only | Print | Product List | Glossary On
Versions: 1 2 3 4 5 6 7 8 9 10 11 12 13 14 15 16 17 18 19 20 21 22 23 24 25 26 27 28 29 30 31 32 33 34
000
FTUS41 KOKX 171936 AAA
TAFEWR
TAF AMD
KEWR 171936Z 1720/1824 29014G23KT P6SM FEW250
     FM172300 29008KT P6SM FEW250
     FM180400 VRB03KT P6SM FEW250
     FM181400 19008KT P6SM BKN150
     FM181700 20011G19KT P6SM BKN150
     FM182200 21014G23KT 6SM -SHRA OVC050=

USA.gov is the U.S. government's official web portal to all federal, state and local government web resources and services.